Time;durP1;ratioP1;P1;durP2;ratioP2;P2;SDS_P1;SDS_P2;PMS_P1;PMS_P2;Temp;Humidity;BMP_temperature;BMP_pressure;BME280_temperature;BME280_humidity;BME280_pressure;Samples;Min_cycle;Max_cycle;Signal;HPM_P1;HPM_P2
2023/02/08 00:03:11;;;;;;;67.10;52.60;;;;;;;-0.49;62.30;103150.33;109072;1280;21853;-83
2023/02/08 00:06:11;;;;;;;72.80;56.00;;;;;;;-0.53;62.19;103147.88;108810;1285;22019;-84
2023/02/08 00:09:10;;;;;;;;;;;;;;;;;;;;;
2023/02/08 00:12:31;;;;;;;80.90;60.60;;;;;;;-0.66;62.20;103151.31;110025;1270;23131;-84
2023/02/08 00:21:35;;;;;;;80.30;61.40;;;;;;;-0.84;62.66;103156.02;108741;1284;21993;-84
2023/02/08 00:25:06;;;;;;;80.20;55.50;;;;;;;-0.82;62.82;103156.83;107892;1295;23079;-88
2023/02/08 00:32:45;;;;;;;;;;;;;;;;;;;;;
2023/02/08 00:36:53;;;;;;;;;;;;;;;;;;;;;
2023/02/08 00:41:06;;;;;;;89.20;63.50;;;;;;;-0.61;62.63;103153.96;109115;1281;21990;-84
2023/02/08 00:43:55;;;;;;;101.10;72.50;;;;;;;-0.58;62.46;103156.73;108840;1286;22023;-84
2023/02/08 00:47:11;;;;;;;109.40;75.70;;;;;;;-0.62;62.30;103155.47;104138;1291;5447803;-84
2023/02/08 00:51:12;;;;;;;106.10;76.70;;;;;;;-0.69;62.53;103155.13;108127;1292;22007;-85
2023/02/08 00:54:57;;;;;;;94.10;65.70;;;;;;;-0.71;62.66;103152.96;107492;1297;22048;-85
2023/02/08 00:57:48;;;;;;;96.50;67.50;;;;;;;-0.76;62.72;103156.25;107973;1292;22208;-84
2023/02/08 01:00:26;;;;;;;90.80;70.70;;;;;;;-0.79;62.83;103155.42;108205;1292;22003;-85
2023/02/08 01:05:19;;;;;;;;;;;;;;;;;;;;;
2023/02/08 01:09:05;;;;;;;106.00;71.30;;;;;;;-0.75;63.06;103154.08;106393;1310;22365;-85
2023/02/08 01:12:30;;;;;;;95.60;65.90;;;;;;;-0.75;63.04;103152.92;106351;1312;21865;-84
2023/02/08 01:16:12;;;;;;;96.70;68.00;;;;;;;-0.72;63.16;103156.33;106587;1308;22028;-82
2023/02/08 01:19:36;;;;;;;87.60;61.50;;;;;;;-0.69;63.33;103155.30;107020;1302;22157;-85
2023/02/08 01:22:31;;;;;;;87.00;62.30;;;;;;;-0.72;63.22;103147.77;107562;1299;23761;-83
2023/02/08 01:25:42;;;;;;;88.80;65.70;;;;;;;-0.68;63.43;103148.80;107701;1295;24044;-84
2023/02/08 01:28:39;;;;;;;94.20;66.40;;;;;;;-0.69;63.34;103152.89;107443;1299;22021;-83
2023/02/08 01:31:26;;;;;;;87.50;66.00;;;;;;;-0.71;63.42;103148.50;107903;1295;23119;-82
2023/02/08 01:34:20;;;;;;;96.30;71.10;;;;;;;-0.71;63.52;103148.50;107767;1293;22011;-83
2023/02/08 01:37:08;;;;;;;103.00;72.80;;;;;;;-0.70;63.63;103147.19;108013;1285;23165;-85
2023/02/08 01:39:41;;;;;;;95.00;69.50;;;;;;;-0.67;63.66;103145.09;107947;1292;22005;-79
2023/02/08 01:42:19;;;;;;;86.10;64.40;;;;;;;-0.66;63.56;103144.67;108119;1286;23110;-81
2023/02/08 01:45:19;;;;;;;96.30;73.80;;;;;;;-0.67;63.54;103143.73;109518;1270;21987;-83
2023/02/08 01:48:00;;;;;;;88.80;68.90;;;;;;;-0.70;63.57;103140.87;110198;1270;22001;-81
2023/02/08 01:51:12;;;;;;;89.30;69.80;;;;;;;-0.70;63.71;103144.45;110758;1262;22727;-85
2023/02/08 01:54:40;;;;;;;99.20;72.60;;;;;;;-0.69;63.79;103147.08;111012;1262;21982;-86
2023/02/08 01:58:05;;;;;;;94.30;69.90;;;;;;;-0.65;63.98;103144.73;110734;1261;23685;-86
2023/02/08 02:01:07;;;;;;;89.10;68.20;;;;;;;-0.62;63.88;103140.75;110716;1259;24425;-86
2023/02/08 02:03:48;;;;;;;85.10;66.60;;;;;;;-0.63;63.80;103136.59;110639;1262;22136;-85
2023/02/08 02:07:56;;;;;;;;;;;;;;;;;;;;;
2023/02/08 02:11:16;;;;;;;90.10;68.90;;;;;;;-0.65;63.92;103131.73;111443;1255;21956;-84
2023/02/08 02:18:38;;;;;;;97.90;72.30;;;;;;;-0.68;64.22;103146.11;110233;1268;23066;-84
2023/02/08 02:22:11;;;;;;;98.10;73.90;;;;;;;-0.63;64.22;103141.73;110097;1263;23076;-84
2023/02/08 02:25:59;;;;;;;94.60;72.70;;;;;;;-0.59;64.31;103146.23;109696;1272;23707;-83
2023/02/08 02:29:29;;;;;;;101.80;75.10;;;;;;;-0.56;64.20;103146.69;109681;1272;21973;-89
2023/02/08 02:33:46;;;;;;;96.20;72.40;;;;;;;-0.54;64.14;103140.84;109576;1273;22031;-85
2023/02/08 02:37:33;;;;;;;104.20;73.20;;;;;;;-0.50;64.18;103144.31;109792;1273;22349;-87
2023/02/08 02:45:11;;;;;;;97.90;73.00;;;;;;;-0.50;64.24;103143.27;109399;1278;22989;-85
2023/02/08 02:48:16;;;;;;;101.00;75.20;;;;;;;-0.47;64.25;103143.08;109218;1273;21987;-85
2023/02/08 02:52:34;;;;;;;100.00;73.70;;;;;;;-0.47;64.13;103138.33;109664;1266;22732;-84
2023/02/08 02:55:32;;;;;;;87.70;66.30;;;;;;;-0.53;64.18;103137.83;108801;1284;24333;-84
2023/02/08 02:58:28;;;;;;;94.70;71.70;;;;;;;-0.51;63.99;103137.89;108641;1284;23724;-84
2023/02/08 03:01:10;;;;;;;89.80;70.30;;;;;;;-0.52;63.89;103137.37;108644;1284;22028;-83
2023/02/08 03:03:40;;;;;;;89.20;67.80;;;;;;;-0.53;63.78;103133.88;108892;1284;22008;-85
2023/02/08 03:06:58;;;;;;;84.90;67.30;;;;;;;-0.38;63.67;103128.65;108402;1286;544158;-85
2023/02/08 03:10:17;;;;;;;85.30;65.80;;;;;;;-0.50;63.60;103136.95;111153;1260;21951;-84
2023/02/08 03:13:05;;;;;;;92.90;68.50;;;;;;;-0.57;63.85;103139.67;111116;1259;23608;-85
2023/02/08 03:16:40;;;;;;;88.70;67.40;;;;;;;-0.55;64.05;103141.96;111434;1251;21979;-85
2023/02/08 03:20:07;;;;;;;80.20;61.40;;;;;;;-0.55;64.11;103137.71;109916;1253;1969822;-86
2023/02/08 03:23:13;;;;;;;73.80;58.40;;;;;;;-0.57;64.00;103137.59;111538;1253;21945;-85
2023/02/08 03:26:17;;;;;;;73.00;55.60;;;;;;;-0.61;63.98;103141.34;111565;1253;24401;-85
2023/02/08 03:29:08;;;;;;;75.90;58.80;;;;;;;-0.63;64.04;103144.66;111638;1240;21956;-86
2023/02/08 03:32:22;;;;;;;80.50;62.10;;;;;;;-0.61;64.01;103140.45;111613;1253;22953;-85
2023/02/08 03:35:29;;;;;;;80.70;58.90;;;;;;;-0.57;64.13;103139.30;111033;1259;22716;-84
2023/02/08 03:38:25;;;;;;;75.60;60.40;;;;;;;-0.52;64.12;103140.29;111026;1259;22206;-85
2023/02/08 03:40:59;;;;;;;82.30;64.40;;;;;;;-0.47;64.01;103143.96;110892;1259;22211;-83
2023/02/08 03:43:59;;;;;;;80.70;63.20;;;;;;;-0.45;63.83;103144.21;111124;1259;21976;-85
2023/02/08 03:47:03;;;;;;;73.30;58.40;;;;;;;-0.48;63.65;103143.20;110898;1259;21985;-85
2023/02/08 03:50:02;;;;;;;74.60;59.30;;;;;;;-0.53;63.68;103146.36;111068;1259;22140;-84
2023/02/08 03:52:38;;;;;;;86.70;71.40;;;;;;;-0.57;63.70;103152.66;110842;1256;21957;-85
2023/02/08 03:55:32;;;;;;;74.60;56.10;;;;;;;-0.58;63.69;103149.52;111067;1256;22044;-84
2023/02/08 03:58:50;;;;;;;66.60;52.50;;;;;;;-0.58;63.72;103152.60;110537;1261;21984;-85
2023/02/08 04:01:55;;;;;;;68.60;51.90;;;;;;;-0.57;63.80;103149.38;110036;1263;23515;-84
2023/02/08 04:04:33;;;;;;;65.40;50.40;;;;;;;-0.54;63.78;103143.76;109841;1268;21990;-84
2023/02/08 04:07:21;;;;;;;61.90;49.10;;;;;;;-0.50;63.71;103149.78;109294;1273;21961;-84
2023/02/08 04:09:59;;;;;;;62.10;49.30;;;;;;;-0.45;63.61;103153.29;109314;1273;23637;-82
2023/02/08 04:12:31;;;;;;;60.10;49.50;;;;;;;-0.40;63.49;103150.30;109449;1273;21973;-83
2023/02/08 04:15:11;;;;;;;60.30;48.50;;;;;;;-0.36;63.42;103149.13;109180;1278;22753;-83
2023/02/08 04:17:50;;;;;;;64.20;49.10;;;;;;;-0.34;63.28;103144.45;108743;1285;23187;-87
2023/02/08 04:20:38;;;;;;;57.70;45.10;;;;;;;-0.35;63.09;103149.71;108424;1291;21997;-87
2023/02/08 04:23:26;;;;;;;60.20;46.40;;;;;;;-0.35;62.96;103156.86;108693;1287;22053;-86
2023/02/08 04:26:01;;;;;;;61.80;50.30;;;;;;;-0.38;63.00;103158.09;108870;1282;23625;-89
2023/02/08 04:28:40;;;;;;;71.60;52.90;;;;;;;-0.42;62.91;103158.09;109116;1281;22026;-86
2023/02/08 04:31:19;;;;;;;61.00;48.40;;;;;;;-0.45;62.88;103156.89;109025;1277;22007;-87
2023/02/08 04:34:03;;;;;;;65.40;51.20;;;;;;;-0.50;62.72;103154.73;109452;1273;23608;-85
2023/02/08 04:36:38;;;;;;;;;;;;;;;-0.57;62.67;103151.09;109496;1274;21988;-87
2023/02/08 04:39:20;;;;;;;62.60;49.00;;;;;;;-0.70;62.63;103149.58;110575;1259;21976;-90
2023/02/08 04:42:44;;;;;;;60.60;48.70;;;;;;;-0.79;62.71;103150.66;110948;1261;22170;-86
2023/02/08 04:45:32;;;;;;;62.20;48.20;;;;;;;-0.85;62.71;103152.35;111089;1259;22360;-87
2023/02/08 04:48:13;;;;;;;60.50;47.80;;;;;;;-0.90;62.67;103155.66;110851;1259;21969;-85
2023/02/08 04:51:00;;;;;;;60.00;48.90;;;;;;;-0.98;62.59;103155.06;110772;1259;23772;-86
2023/02/08 04:53:43;;;;;;;66.00;50.70;;;;;;;-1.08;62.60;103153.66;110972;1260;21980;-86
2023/02/08 04:56:37;;;;;;;64.10;49.90;;;;;;;-1.18;62.67;103156.90;111369;1254;23753;-84
2023/02/08 04:59:37;;;;;;;64.00;51.10;;;;;;;-1.31;62.73;103160.27;111294;1254;21954;-83
2023/02/08 05:02:36;;;;;;;64.90;45.30;;;;;;;-1.42;62.84;103160.52;111351;1243;21953;-82
2023/02/08 05:05:11;;;;;;;58.40;43.90;;;;;;;-1.49;63.09;103161.12;111187;1254;21965;-83
2023/02/08 05:07:53;;;;;;;60.30;46.00;;;;;;;-1.55;63.22;103163.05;111440;1253;21972;-83
2023/02/08 05:10:43;;;;;;;56.30;44.00;;;;;;;-1.61;63.27;103167.31;111403;1253;23577;-82
2023/02/08 05:13:26;;;;;;;64.20;47.40;;;;;;;-1.67;63.45;103173.45;111515;1253;21979;-82
2023/02/08 05:16:10;;;;;;;63.20;46.90;;;;;;;-1.71;63.65;103173.73;111313;1243;21924;-82
2023/02/08 05:18:47;;;;;;;66.20;51.70;;;;;;;-1.73;63.73;103172.57;111306;1253;22398;-81
2023/02/08 05:21:47;;;;;;;91.90;64.00;;;;;;;-1.78;63.79;103170.95;111317;1251;22962;-83
2023/02/08 05:24:22;;;;;;;109.30;73.00;;;;;;;-1.83;63.95;103172.54;111254;1258;22088;-83
2023/02/08 05:26:55;;;;;;;107.50;76.00;;;;;;;-1.88;64.05;103169.67;111171;1257;23039;-83
2023/02/08 05:29:27;;;;;;;114.30;75.10;;;;;;;-1.89;64.04;103176.08;111053;1258;21983;-81
2023/02/08 05:32:08;;;;;;;102.80;72.10;;;;;;;-1.94;64.11;103179.91;111044;1258;21964;-83
2023/02/08 05:34:50;;;;;;;91.30;67.20;;;;;;;-2.01;64.19;103179.86;111002;1258;21967;-81
2023/02/08 05:37:35;;;;;;;99.40;71.70;;;;;;;-2.06;64.36;103183.61;110969;1258;21990;-82
2023/02/08 05:40:06;;;;;;;78.30;60.70;;;;;;;-2.12;64.47;103185.65;111007;1258;23064;-82
2023/02/08 05:42:44;;;;;;;73.00;54.60;;;;;;;-2.17;64.55;103184.72;111009;1258;21969;-83
2023/02/08 05:45:31;;;;;;;76.90;58.20;;;;;;;-2.20;64.72;103189.66;111028;1258;22089;-81
2023/02/08 05:48:47;;;;;;;84.80;60.80;;;;;;;-2.21;64.75;103190.63;110783;1263;21932;-88
2023/02/08 05:51:24;;;;;;;97.50;68.50;;;;;;;-2.24;64.84;103192.77;110807;1263;22029;-84
2023/02/08 05:54:12;;;;;;;123.40;85.40;;;;;;;-2.24;65.08;103189.88;110751;1259;23072;-83
2023/02/08 05:56:47;;;;;;;144.20;101.60;;;;;;;-2.21;65.28;103193.17;110622;1263;22446;-83
2023/02/08 05:59:33;;;;;;;147.40;100.20;;;;;;;-2.16;65.39;103189.00;110132;1268;23101;-82
2023/02/08 06:02:09;;;;;;;134.00;91.70;;;;;;;-2.12;65.37;103186.50;109624;1269;21996;-83
2023/02/08 06:04:48;;;;;;;126.90;92.30;;;;;;;-2.08;65.37;103191.52;109615;1273;22030;-82
2023/02/08 06:07:21;;;;;;;137.00;94.40;;;;;;;-2.05;65.40;103195.98;109607;1273;23795;-82
2023/02/08 06:09:54;;;;;;;131.70;92.00;;;;;;;-2.01;65.45;103196.73;109471;1271;23732;-78
2023/02/08 06:12:32;;;;;;;135.50;95.50;;;;;;;-1.97;65.48;103200.56;109669;1268;21996;-85
2023/02/08 06:15:35;;;;;;;137.40;89.50;;;;;;;-1.95;65.37;103195.88;109934;1266;23724;-85
2023/02/08 06:18:25;;;;;;;150.70;94.00;;;;;;;-1.96;65.48;103199.92;109676;1268;24319;-84
2023/02/08 06:21:02;;;;;;;153.80;98.90;;;;;;;-1.97;65.53;103200.56;110352;1263;23666;-82
2023/02/08 06:23:33;;;;;;;150.60;99.00;;;;;;;-1.94;65.76;103202.25;110800;1260;21970;-85
2023/02/08 06:26:05;;;;;;;130.00;87.70;;;;;;;-1.90;65.85;103201.81;110913;1260;21986;-80
2023/02/08 06:28:35;;;;;;;96.70;68.60;;;;;;;-1.86;65.82;103207.50;110954;1260;21985;-80
2023/02/08 06:31:08;;;;;;;93.70;63.60;;;;;;;-1.82;65.81;103210.96;110936;1260;21984;-81
2023/02/08 06:33:37;;;;;;;;;;;;;;;-1.77;65.90;103209.90;111027;1260;21948;-79
2023/02/08 06:36:08;;;;;;;86.60;62.50;;;;;;;-1.78;66.06;103212.59;111307;1253;21973;-80
2023/02/08 06:38:45;;;;;;;97.00;67.50;;;;;;;-1.70;66.15;103213.23;111476;1253;21967;-79
2023/02/08 06:41:16;;;;;;;83.70;64.20;;;;;;;-1.63;66.26;103217.94;111309;1253;21959;-79
2023/02/08 06:43:47;;;;;;;85.30;61.60;;;;;;;-1.54;66.09;103219.96;111268;1253;21930;-80
2023/02/08 06:46:21;;;;;;;93.90;69.10;;;;;;;-1.48;65.96;103224.10;111441;1253;21962;-80
2023/02/08 06:48:55;;;;;;;82.60;64.30;;;;;;;-1.42;65.93;103230.06;111420;1253;23611;-80
2023/02/08 06:51:27;;;;;;;98.10;73.80;;;;;;;-1.40;65.92;103230.87;111523;1253;21980;-82
2023/02/08 06:54:01;;;;;;;94.50;70.80;;;;;;;-1.43;65.66;103237.16;110890;1257;21959;-82
2023/02/08 06:56:34;;;;;;;96.50;66.50;;;;;;;-1.48;65.57;103237.03;111068;1257;21958;-80
2023/02/08 06:59:04;;;;;;;75.70;59.00;;;;;;;-1.50;65.67;103237.80;111211;1258;21979;-79
2023/02/08 07:01:34;;;;;;;70.00;55.90;;;;;;;-1.48;65.67;103240.60;111000;1258;21980;-79
2023/02/08 07:04:05;;;;;;;64.10;50.40;;;;;;;-1.48;65.59;103242.50;111107;1258;21978;-78
2023/02/08 07:06:35;;;;;;;80.70;59.80;;;;;;;-1.47;65.63;103245.95;110789;1258;24011;-80
2023/02/08 07:09:05;;;;;;;85.60;62.60;;;;;;;-1.43;65.79;103246.42;110967;1258;21965;-80
2023/02/08 07:11:42;;;;;;;102.30;73.70;;;;;;;-1.37;65.89;103249.28;111245;1253;23861;-79
2023/02/08 07:14:14;;;;;;;83.70;62.80;;;;;;;-1.34;65.69;103256.47;110847;1259;21960;-79
2023/02/08 07:16:44;;;;;;;65.40;52.50;;;;;;;-1.34;65.77;103253.92;111057;1258;23686;-79
2023/02/08 07:19:16;;;;;;;78.00;55.80;;;;;;;-1.27;65.97;103253.81;111036;1247;23021;-79
2023/02/08 07:21:46;;;;;;;79.60;52.40;;;;;;;-1.23;65.77;103256.91;111205;1259;21985;-87
2023/02/08 07:24:16;;;;;;;72.50;50.90;;;;;;;-1.24;65.74;103258.57;110986;1259;21972;-80
2023/02/08 07:26:53;;;;;;;73.60;55.10;;;;;;;-1.22;65.75;103258.70;111146;1251;22093;-80
2023/02/08 07:29:27;;;;;;;;;;;;;;;-1.17;65.79;103259.33;110848;1259;24298;-79
2023/02/08 07:32:00;;;;;;;87.10;61.50;;;;;;;-1.23;65.86;103263.27;111349;1253;22454;-81
2023/02/08 07:34:40;;;;;;;85.20;63.60;;;;;;;-1.20;66.02;103259.64;111265;1253;21958;-80
2023/02/08 07:37:19;;;;;;;107.40;68.90;;;;;;;-1.12;66.18;103257.58;111384;1253;21958;-81
2023/02/08 07:39:57;;;;;;;115.00;72.00;;;;;;;-1.01;66.02;103253.06;111312;1253;21954;-79
2023/02/08 07:42:32;;;;;;;117.80;73.20;;;;;;;-0.96;65.93;103258.25;110898;1259;23066;-83
2023/02/08 07:45:39;;;;;;;;;;;;;;;;;;;;;
2023/02/08 07:48:52;;;;;;;98.60;71.40;;;;;;;-1.00;65.65;103264.23;110418;1264;23398;-80
2023/02/08 07:51:26;;;;;;;108.50;76.90;;;;;;;-0.95;65.84;103269.80;110412;1264;22436;-80
2023/02/08 07:54:16;;;;;;;98.90;72.50;;;;;;;-0.89;65.85;103275.27;110200;1264;22018;-81
2023/02/08 07:57:05;;;;;;;110.60;78.40;;;;;;;-0.84;65.71;103280.34;110714;1264;23129;-79
2023/02/08 08:00:03;;;;;;;101.00;71.20;;;;;;;-0.82;65.59;103280.30;110417;1264;21969;-81
2023/02/08 08:02:44;;;;;;;76.50;56.00;;;;;;;-0.81;65.46;103283.73;110333;1264;21964;-79
2023/02/08 08:05:16;;;;;;;73.90;56.20;;;;;;;-0.82;65.41;103284.39;110166;1264;22043;-80
2023/02/08 08:07:49;;;;;;;73.40;54.50;;;;;;;-0.85;65.41;103281.64;110649;1259;21988;-79
2023/02/08 08:10:33;;;;;;;71.20;51.50;;;;;;;-0.85;65.36;103280.60;110989;1259;22252;-81
2023/02/08 08:13:12;;;;;;;54.20;43.70;;;;;;;-0.88;65.33;103279.41;111081;1259;23540;-82
2023/02/08 08:16:03;;;;;;;;;;;;;;;;;;;;;
2023/02/08 08:18:46;;;;;;;67.10;52.00;;;;;;;-0.82;65.23;103284.21;110977;1260;21966;-79
2023/02/08 08:21:36;;;;;;;115.50;82.50;;;;;;;-0.85;64.97;103277.88;110732;1260;21968;-83
2023/02/08 08:24:21;;;;;;;51.70;40.60;;;;;;;-0.85;65.14;103279.06;110881;1260;23618;-84
2023/02/08 08:26:59;;;;;;;51.80;39.40;;;;;;;-0.79;65.11;103279.59;111185;1254;21962;-82
2023/02/08 08:29:41;;;;;;;53.60;41.70;;;;;;;-0.75;65.20;103276.02;111514;1254;23732;-84
2023/02/08 08:32:24;;;;;;;55.60;42.20;;;;;;;-0.67;65.24;103277.52;111367;1254;23688;-83
2023/02/08 08:34:55;;;;;;;52.30;38.40;;;;;;;-0.54;65.25;103282.80;111491;1252;22039;-82
2023/02/08 08:37:26;;;;;;;58.90;41.70;;;;;;;-0.41;65.31;103282.66;111226;1253;24900;-82
2023/02/08 08:39:59;;;;;;;54.10;41.50;;;;;;;-0.30;65.17;103287.02;111455;1252;23685;-86
2023/02/08 08:42:35;;;;;;;49.40;39.70;;;;;;;-0.21;65.07;103289.59;111568;1252;22930;-82
2023/02/08 08:45:07;;;;;;;47.30;38.50;;;;;;;-0.10;64.98;103290.29;111688;1252;23034;-83
2023/02/08 08:47:44;;;;;;;59.20;44.40;;;;;;;-0.04;64.76;103294.59;111597;1253;23036;-85
2023/02/08 08:50:25;;;;;;;65.80;52.90;;;;;;;-0.06;64.30;103294.49;111641;1254;21967;-82
2023/02/08 08:53:19;;;;;;;59.10;45.60;;;;;;;-0.08;64.16;103293.88;111561;1253;21969;-84
2023/02/08 08:56:39;;;;;;;54.00;40.20;;;;;;;-0.10;63.77;103294.79;111720;1253;21955;-87
2023/02/08 08:59:46;;;;;;;59.90;43.20;;;;;;;-0.19;63.54;103293.42;111734;1253;21972;-85
2023/02/08 09:02:30;;;;;;;52.60;39.00;;;;;;;-0.24;63.69;103293.02;111949;1253;21971;-84
2023/02/08 09:05:33;;;;;;;;;;;;;;;;;;;;;
2023/02/08 09:08:48;;;;;;;58.60;41.50;;;;;;;-0.17;63.89;103294.40;111235;1258;21990;-84
2023/02/08 09:11:45;;;;;;;47.50;33.80;;;;;;;-0.11;63.91;103294.02;111233;1258;22646;-86
2023/02/08 09:14:46;;;;;;;;;;;;;;;;;;;;;
2023/02/08 09:17:50;;;;;;;44.30;29.40;;;;;;;0.01;63.42;103302.90;111290;1258;21992;-83
2023/02/08 09:20:32;;;;;;;46.90;32.90;;;;;;;-0.09;63.13;103298.77;111241;1257;22002;-84
2023/02/08 09:23:33;;;;;;;46.40;33.60;;;;;;;-0.11;63.44;103297.81;111494;1258;23583;-85
2023/02/08 09:26:22;;;;;;;45.40;33.00;;;;;;;-0.01;63.64;103304.69;111344;1257;21939;-85
2023/02/08 09:28:57;;;;;;;32.80;27.00;;;;;;;0.10;63.36;103307.64;111267;1254;22000;-83
2023/02/08 09:31:38;;;;;;;40.50;26.00;;;;;;;0.06;62.83;103313.80;111359;1254;22982;-82
2023/02/08 09:34:20;;;;;;;33.30;24.10;;;;;;;0.03;62.87;103318.59;111699;1254;21984;-85
2023/02/08 09:37:00;;;;;;;36.70;26.90;;;;;;;0.05;62.85;103323.48;111097;1259;23030;-83
2023/02/08 09:39:32;;;;;;;39.80;24.90;;;;;;;0.06;62.83;103317.38;111136;1259;22046;-88
2023/02/08 09:42:43;;;;;;;39.20;26.90;;;;;;;0.11;62.94;103310.45;111056;1259;23069;-86
2023/02/08 09:46:48;;;;;;;35.50;25.20;;;;;;;0.18;62.79;103307.20;111201;1257;23023;-91
2023/02/08 09:57:37;;;;;;;38.10;28.00;;;;;;;0.25;62.76;103298.63;110126;1266;22154;-82
2023/02/08 10:00:21;;;;;;;45.20;35.20;;;;;;;0.32;62.71;103298.00;109945;1267;22044;-79
2023/02/08 10:03:14;;;;;;;;;;;;;;;;;;;;;
2023/02/08 10:06:01;;;;;;;44.90;30.60;;;;;;;0.45;62.23;103295.09;109595;1271;22068;-83
2023/02/08 10:08:39;;;;;;;35.50;25.10;;;;;;;0.47;62.09;103293.43;109374;1273;21981;-82
2023/02/08 10:11:51;;;;;;;41.60;28.20;;;;;;;0.56;62.21;103291.18;109627;1272;21986;-80
2023/02/08 10:15:13;;;;;;;35.50;24.80;;;;;;;0.61;62.11;103282.48;109526;1273;22477;-83
2023/02/08 10:18:36;;;;;;;31.40;22.30;;;;;;;0.73;62.40;103275.73;109650;1273;22030;-82
2023/02/08 10:21:57;;;;;;;36.90;23.50;;;;;;;0.78;61.50;103270.83;108947;1279;22787;-84
2023/02/08 10:25:25;;;;;;;30.60;23.90;;;;;;;0.74;61.35;103265.67;109276;1274;23346;-85
2023/02/08 10:28:47;;;;;;;28.10;21.00;;;;;;;0.70;61.19;103268.05;109454;1274;23009;-83
2023/02/08 10:31:46;;;;;;;32.30;24.70;;;;;;;0.74;61.24;103268.59;109419;1274;21991;-84
2023/02/08 10:34:51;;;;;;;46.80;27.20;;;;;;;0.79;61.07;103266.06;109525;1268;22750;-86
2023/02/08 10:37:41;;;;;;;37.10;26.70;;;;;;;0.80;60.94;103261.67;109522;1273;21978;-85
2023/02/08 10:40:41;;;;;;;38.00;25.80;;;;;;;0.82;60.92;103256.27;109497;1273;24339;-84
2023/02/08 10:43:32;;;;;;;41.50;29.20;;;;;;;0.90;60.70;103251.17;109019;1279;22750;-84
2023/02/08 10:46:51;;;;;;;37.30;28.70;;;;;;;0.92;60.59;103246.98;108796;1284;21998;-85
2023/02/08 10:49:49;;;;;;;28.90;23.20;;;;;;;0.95;60.42;103240.64;108539;1284;22069;-86
2023/02/08 10:52:34;;;;;;;33.70;27.60;;;;;;;0.88;60.17;103243.17;108491;1289;23060;-84
2023/02/08 10:55:57;;;;;;;50.40;41.90;;;;;;;0.82;60.33;103241.52;108503;1288;23083;-82
2023/02/08 10:58:35;;;;;;;44.20;27.70;;;;;;;0.83;60.28;103238.50;108211;1289;22023;-82
2023/02/08 11:01:07;;;;;;;30.10;25.80;;;;;;;0.86;60.09;103240.85;108548;1284;22006;-82
2023/02/08 11:04:08;;;;;;;31.10;23.80;;;;;;;0.87;60.17;103239.56;108761;1279;22023;-82
2023/02/08 11:06:45;;;;;;;33.30;26.00;;;;;;;0.89;60.11;103232.46;109035;1277;23748;-83
2023/02/08 11:09:40;;;;;;;52.10;28.20;;;;;;;0.93;60.30;103231.26;109189;1279;22000;-83
2023/02/08 11:12:54;;;;;;;43.90;31.80;;;;;;;0.95;60.00;103228.09;109144;1279;22830;-81
2023/02/08 11:16:12;;;;;;;74.50;50.70;;;;;;;0.92;60.04;103224.54;109162;1279;22302;-84
2023/02/08 11:19:04;;;;;;;40.40;31.00;;;;;;;0.97;60.28;103224.10;108734;1284;22441;-83
2023/02/08 11:21:47;;;;;;;41.90;33.40;;;;;;;0.94;60.10;103221.73;108649;1284;23072;-83
2023/02/08 11:25:08;;;;;;;63.30;38.50;;;;;;;0.90;60.05;103217.61;108627;1288;23891;-83
2023/02/08 11:27:59;;;;;;;52.60;39.40;;;;;;;0.94;60.25;103212.45;107735;1293;22296;-84
2023/02/08 11:30:32;;;;;;;46.30;38.00;;;;;;;0.93;60.36;103207.61;108026;1292;23634;-84
2023/02/08 11:33:22;;;;;;;48.20;34.70;;;;;;;0.99;60.49;103210.27;108553;1295;21986;-81
2023/02/08 11:36:03;;;;;;;50.40;36.60;;;;;;;1.05;60.57;103213.52;108394;1287;22013;-82
2023/02/08 11:39:48;;;;;;;;;;;;;;;1.15;60.73;103212.92;108907;1287;21981;-84
2023/02/08 11:42:46;;;;;;;56.40;38.70;;;;;;;1.19;60.72;103212.42;108588;1289;22016;-84
2023/02/08 11:45:48;;;;;;;52.40;38.70;;;;;;;1.24;60.77;103209.21;108913;1280;22018;-83
2023/02/08 11:48:51;;;;;;;55.60;42.90;;;;;;;1.39;61.06;103211.30;109032;1279;22915;-86
2023/02/08 11:51:53;;;;;;;51.00;43.10;;;;;;;1.49;60.62;103208.97;108858;1280;23609;-85
2023/02/08 11:54:41;;;;;;;58.30;46.10;;;;;;;1.53;60.40;103208.66;108927;1280;24340;-83
2023/02/08 11:57:28;;;;;;;;;;;;;;;;;;;;;
2023/02/08 12:00:25;;;;;;;59.10;42.00;;;;;;;1.47;59.81;103215.44;109013;1275;21991;-80
2023/02/08 12:03:24;;;;;;;51.10;43.50;;;;;;;1.39;59.95;103222.44;109680;1270;22002;-82
2023/02/08 12:06:39;;;;;;;65.00;51.00;;;;;;;1.30;59.99;103223.92;109933;1270;21997;-84
2023/02/08 12:10:13;;;;;;;60.40;48.50;;;;;;;1.19;60.23;103222.73;109704;1273;21989;-82
2023/02/08 12:13:29;;;;;;;67.00;47.00;;;;;;;1.22;60.67;103221.82;109898;1270;21988;-83
2023/02/08 12:17:30;;;;;;;72.10;51.70;;;;;;;1.34;60.96;103221.16;109973;1269;22289;-82
2023/02/08 12:20:36;;;;;;;62.20;47.40;;;;;;;1.44;61.10;103212.72;109096;1273;22015;-82
2023/02/08 12:24:05;;;;;;;56.20;47.10;;;;;;;1.52;60.99;103211.54;109351;1276;21998;-84
2023/02/08 12:27:05;;;;;;;54.40;46.30;;;;;;;1.55;60.55;103214.06;109240;1277;23670;-83
2023/02/08 12:29:47;;;;;;;60.30;48.70;;;;;;;1.46;60.67;103203.88;109265;1277;21993;-83
2023/02/08 12:32:43;;;;;;;59.10;47.60;;;;;;;1.50;61.04;103199.77;109282;1277;22065;-84
2023/02/08 12:35:50;;;;;;;52.30;45.20;;;;;;;1.65;61.23;103199.23;109290;1277;23079;-83
2023/02/08 12:43:57;;;;;;;53.20;43.10;;;;;;;1.72;60.91;103188.92;109422;1271;22007;-81
2023/02/08 12:47:30;;;;;;;61.20;43.60;;;;;;;1.72;60.58;103190.62;109591;1271;22010;-82
2023/02/08 12:50:31;;;;;;;61.70;44.10;;;;;;;1.73;60.58;103192.70;108931;1282;23844;-83
2023/02/08 12:53:24;;;;;;;57.00;44.00;;;;;;;1.64;60.02;103187.39;109023;1282;21997;-82
2023/02/08 12:56:20;;;;;;;45.30;39.70;;;;;;;1.53;60.12;103181.56;109397;1274;22013;-82
2023/02/08 12:59:29;;;;;;;63.80;46.10;;;;;;;1.51;60.34;103176.83;109441;1273;23072;-82
2023/02/08 13:02:45;;;;;;;50.00;39.70;;;;;;;1.49;60.30;103174.34;109545;1270;22446;-79
2023/02/08 13:05:37;;;;;;;55.10;44.10;;;;;;;1.44;60.36;103170.64;109033;1282;21989;-80
2023/02/08 13:08:22;;;;;;;58.00;45.20;;;;;;;1.47;60.62;103169.41;108640;1282;21990;-84
2023/02/08 13:11:15;;;;;;;53.00;41.80;;;;;;;1.56;60.79;103166.56;109004;1280;22003;-81
2023/02/08 13:14:08;;;;;;;49.60;40.20;;;;;;;1.66;60.67;103164.23;109269;1282;22028;-84
2023/02/08 13:16:51;;;;;;;49.60;39.80;;;;;;;1.67;60.62;103163.99;108931;1282;22013;-84
2023/02/08 13:20:02;;;;;;;50.00;41.00;;;;;;;1.65;60.21;103161.46;109044;1282;22003;-81
2023/02/08 13:22:42;;;;;;;49.70;39.10;;;;;;;1.60;60.25;103159.72;108978;1277;21994;-81
2023/02/08 13:25:48;;;;;;;49.50;40.00;;;;;;;1.60;60.11;103154.71;109445;1272;22001;-83
2023/02/08 13:29:04;;;;;;;53.10;44.50;;;;;;;1.55;60.16;103153.64;109608;1271;21984;-85
2023/02/08 13:32:29;;;;;;;59.50;46.30;;;;;;;1.56;60.32;103151.29;109551;1273;22004;-83
2023/02/08 13:35:16;;;;;;;62.90;52.60;;;;;;;1.59;60.49;103149.70;109039;1274;22005;-83
2023/02/08 13:38:19;;;;;;;66.60;48.70;;;;;;;1.60;60.39;103146.32;109076;1276;23727;-85
2023/02/08 13:41:24;;;;;;;109.10;67.40;;;;;;;1.61;60.24;103149.60;109157;1278;22007;-83
2023/02/08 13:44:28;;;;;;;84.90;54.80;;;;;;;1.60;60.38;103150.75;109201;1279;22079;-83
2023/02/08 13:47:56;;;;;;;69.00;49.20;;;;;;;1.56;60.36;103148.05;109199;1279;22004;-84
2023/02/08 13:50:55;;;;;;;58.60;43.20;;;;;;;1.56;60.68;103145.96;109017;1279;21999;-84
2023/02/08 13:53:51;;;;;;;67.40;53.90;;;;;;;1.70;61.24;103142.13;109155;1278;22104;-84
2023/02/08 13:56:51;;;;;;;48.90;41.80;;;;;;;1.83;60.72;103134.44;109339;1275;21999;-83
2023/02/08 13:59:37;;;;;;;40.30;34.30;;;;;;;1.90;60.83;103137.51;109251;1275;22001;-84
2023/02/08 14:02:16;;;;;;;42.30;37.20;;;;;;;2.01;60.90;103137.42;109439;1274;22264;-84
2023/02/08 14:05:17;;;;;;;50.10;40.10;;;;;;;2.12;60.85;103140.80;109561;1274;22115;-83